Time;durP1;ratioP1;P1;durP2;ratioP2;P2;SDS_P1;SDS_P2;PMS_P1;PMS_P2;Temp;Humidity;BMP_temperature;BMP_pressure;BME280_temperature;BME280_humidity;BME280_pressure;Samples;Min_cycle;Max_cycle;Signal;HPM_P1;HPM_P2
2023/09/02 00:02:12;;;;;;;4.50;3.70;;;;;;;16.61;77.70;97324.94;102922;1286;95913;-84
2023/09/02 00:18:28;;;;;;;9.60;4.80;;;;;;;16.49;78.56;97345.09;101533;1301;639976;-84
2023/09/02 00:21:37;;;;;;;6.90;4.50;;;;;;;16.40;79.72;97346.58;103574;1281;95901;-86
2023/09/02 00:40:50;;;;;;;8.00;5.30;;;;;;;16.38;80.07;97367.25;101609;1309;639379;-79
2023/09/02 00:43:58;;;;;;;9.90;5.30;;;;;;;16.35;80.34;97370.47;103892;1280;95878;-79
2023/09/02 00:59:29;;;;;;;10.40;5.40;;;;;;;16.23;81.10;97353.23;101830;1295;638870;-83
2023/09/02 01:02:37;;;;;;;9.50;5.70;;;;;;;16.19;81.69;97341.80;103936;1280;96017;-79
2023/09/02 01:05:46;;;;;;;10.10;5.80;;;;;;;16.20;81.72;97337.13;102659;1292;96067;-80
2023/09/02 01:21:53;;;;;;;11.20;6.50;;;;;;;16.18;82.36;97372.73;101981;1303;642772;-79
2023/09/02 01:25:28;;;;;;;7.40;5.90;;;;;;;16.13;82.74;97382.17;103617;1279;96130;-81
2023/09/02 01:28:38;;;;;;;8.50;6.30;;;;;;;16.11;82.92;97379.69;102221;1312;96837;-79
2023/09/02 01:51:01;;;;;;;8.00;5.40;;;;;;;16.27;82.78;97355.91;101603;1302;640232;-79
2023/09/02 01:54:09;;;;;;;7.50;5.10;;;;;;;16.26;83.05;97366.58;103848;1281;96898;-82
2023/09/02 01:57:05;;;;;;;7.90;5.00;;;;;;;16.29;83.19;97367.66;102947;1287;95977;-80
2023/09/02 02:00:12;;;;;;;7.60;4.20;;;;;;;16.26;83.28;97365.59;102968;1283;98529;-80
2023/09/02 02:07:26;;;;;;;6.20;5.30;;;;;;;16.28;83.04;97355.55;101407;1303;643362;-84
2023/09/02 02:10:33;;;;;;;8.20;4.90;;;;;;;16.26;83.31;97366.85;104373;1271;95949;-80
2023/09/02 02:13:40;;;;;;;6.40;4.80;;;;;;;16.23;83.39;97367.79;104038;1272;96800;-80
2023/09/02 02:16:48;;;;;;;5.90;5.00;;;;;;;16.14;83.86;97364.70;102696;1288;98508;-81
2023/09/02 02:32:41;;;;;;;7.90;4.80;;;;;;;16.09;83.84;97353.73;101657;1300;636125;-81
2023/09/02 02:35:52;;;;;;;7.70;5.30;;;;;;;16.08;83.87;97352.66;103440;1292;95935;-82
2023/09/02 02:38:53;;;;;;;5.90;4.70;;;;;;;16.06;84.17;97351.50;104032;1276;95969;-81
2023/09/02 02:42:01;;;;;;;7.90;5.10;;;;;;;16.00;84.38;97348.34;103395;1283;98440;-81
2023/09/02 02:56:56;;;;;;;8.60;4.70;;;;;;;16.02;84.48;97339.71;101559;1292;636937;-76
2023/09/02 02:59:24;;;;;;;6.20;4.90;;;;;;;15.98;84.62;97339.60;104515;1263;95890;-77
2023/09/02 03:01:52;;;;;;;5.50;4.60;;;;;;;15.99;84.45;97333.36;104469;1263;95904;-77
2023/09/02 03:04:20;;;;;;;6.30;4.70;;;;;;;15.99;85.13;97329.45;104494;1274;99749;-76
2023/09/02 03:06:47;;;;;;;5.60;4.80;;;;;;;15.94;85.08;97329.41;104726;1272;101256;-85
2023/09/02 03:09:15;;;;;;;5.20;4.60;;;;;;;15.91;85.06;97330.18;104586;1261;98929;-86
2023/09/02 03:11:43;;;;;;;5.70;5.10;;;;;;;15.89;85.09;97329.23;104686;1261;153930;-86
2023/09/02 03:14:11;;;;;;;9.20;5.20;;;;;;;15.89;85.19;97330.86;104871;1268;96779;-86
2023/09/02 03:16:38;;;;;;;6.10;4.90;;;;;;;15.87;85.20;97328.21;104930;1254;99323;-77
2023/09/02 03:19:06;;;;;;;5.30;4.80;;;;;;;15.85;85.11;97328.55;104897;1254;100339;-77
2023/09/02 03:21:33;;;;;;;7.20;4.60;;;;;;;15.86;85.15;97323.17;105042;1267;99306;-77
2023/09/02 03:24:01;;;;;;;6.10;4.60;;;;;;;15.87;85.24;97321.02;104826;1259;95852;-77
2023/09/02 03:26:29;;;;;;;7.90;5.30;;;;;;;15.86;85.19;97321.88;104913;1253;96235;-76
2023/09/02 03:28:57;;;;;;;7.30;5.20;;;;;;;15.81;85.35;97326.15;104831;1259;100442;-76
2023/09/02 03:31:24;;;;;;;6.30;4.80;;;;;;;15.74;85.17;97325.21;104867;1258;100320;-76
2023/09/02 03:33:52;;;;;;;7.10;5.00;;;;;;;15.74;85.28;97325.31;104852;1254;99971;-76
2023/09/02 03:36:20;;;;;;;6.10;4.50;;;;;;;15.70;85.66;97326.88;104857;1259;96856;-76
2023/09/02 03:38:48;;;;;;;4.80;4.40;;;;;;;15.65;85.70;97328.98;104903;1257;97177;-76
2023/09/02 03:41:17;;;;;;;7.60;4.60;;;;;;;15.62;85.83;97325.97;104851;1257;99670;-77
2023/09/02 03:43:46;;;;;;;7.10;4.90;;;;;;;15.63;85.63;97332.20;104859;1259;100804;-76
2023/09/02 03:46:14;;;;;;;4.60;4.20;;;;;;;15.65;85.68;97332.36;104870;1259;99959;-87
2023/09/02 03:48:42;;;;;;;7.10;4.80;;;;;;;15.66;85.78;97334.39;104477;1265;97444;-88
2023/09/02 03:51:12;;;;;;;7.80;4.80;;;;;;;15.67;85.91;97335.71;104503;1266;96082;-88
2023/09/02 03:53:41;;;;;;;6.00;5.40;;;;;;;15.68;86.46;97334.52;104536;1259;102118;-89
2023/09/02 03:56:08;;;;;;;6.50;5.00;;;;;;;15.69;86.35;97333.67;104421;1265;100088;-90
2023/09/02 03:58:36;;;;;;;6.70;5.30;;;;;;;15.70;86.01;97336.79;104259;1267;100229;-90
2023/09/02 04:01:04;;;;;;;6.40;5.60;;;;;;;15.74;86.08;97334.84;104326;1265;95906;-76
2023/09/02 04:03:36;;;;;;;7.60;5.20;;;;;;;15.74;86.77;97337.41;104244;1268;95996;-76
2023/09/02 04:06:04;;;;;;;9.80;5.80;;;;;;;15.73;87.02;97335.26;104266;1263;100053;-76
2023/09/02 04:08:34;;;;;;;6.40;5.60;;;;;;;15.73;87.19;97333.63;104238;1268;101527;-78
2023/09/02 04:11:02;;;;;;;5.30;4.80;;;;;;;15.73;87.24;97332.75;104280;1284;100148;-77
2023/09/02 04:13:31;;;;;;;8.00;5.70;;;;;;;15.75;87.60;97338.07;104216;1267;95974;-77
2023/09/02 04:16:00;;;;;;;6.40;5.20;;;;;;;15.75;87.81;97339.65;104142;1265;96025;-92
2023/09/02 04:18:28;;;;;;;6.60;5.70;;;;;;;15.77;87.71;97342.25;103689;1276;100859;-92
2023/09/02 04:20:55;;;;;;;10.20;6.50;;;;;;;15.78;87.73;97340.20;104080;1268;100577;-91
2023/09/02 04:23:23;;;;;;;8.20;6.40;;;;;;;15.81;88.67;97337.80;104183;1267;99698;-77
2023/09/02 04:25:53;;;;;;;8.20;6.40;;;;;;;15.80;88.87;97342.09;104136;1270;97316;-89
2023/09/02 04:28:21;;;;;;;7.30;6.50;;;;;;;15.78;88.67;97340.30;104159;1271;95997;-89
2023/09/02 04:30:49;;;;;;;7.90;6.30;;;;;;;15.79;88.31;97338.85;104240;1266;99985;-83
2023/09/02 04:33:18;;;;;;;6.50;6.00;;;;;;;15.84;88.18;97338.05;104369;1266;100380;-83
2023/09/02 04:35:46;;;;;;;6.60;5.90;;;;;;;15.89;88.04;97337.39;104123;1262;98666;-83
2023/09/02 04:38:14;;;;;;;6.70;5.70;;;;;;;15.92;88.52;97339.04;104222;1267;95999;-82
2023/09/02 04:40:44;;;;;;;6.40;5.60;;;;;;;15.95;88.44;97345.44;104241;1267;95963;-82
2023/09/02 04:43:13;;;;;;;5.90;5.30;;;;;;;15.96;88.58;97345.11;104186;1270;99583;-82
2023/09/02 04:45:43;;;;;;;5.70;5.10;;;;;;;16.00;88.09;97347.88;104322;1277;101502;-76
2023/09/02 04:48:11;;;;;;;10.80;5.90;;;;;;;16.07;88.12;97352.22;104239;1268;99082;-75
2023/09/02 04:50:40;;;;;;;6.80;5.80;;;;;;;16.14;87.85;97357.47;104415;1265;96045;-75
2023/09/02 04:53:08;;;;;;;6.70;6.10;;;;;;;16.17;88.64;97353.16;104404;1260;97268;-76
2023/09/02 04:55:40;;;;;;;9.30;7.20;;;;;;;16.15;89.42;97352.10;104557;1262;101154;-76
2023/09/02 04:58:08;;;;;;;8.20;6.60;;;;;;;16.15;88.84;97356.23;104665;1262;102545;-77
2023/09/02 05:00:37;;;;;;;7.80;6.20;;;;;;;16.16;88.73;97353.90;104782;1257;98409;-87
2023/09/02 05:03:05;;;;;;;8.20;6.20;;;;;;;16.16;88.45;97358.48;104582;1257;96471;-76
2023/09/02 05:05:33;;;;;;;11.00;6.80;;;;;;;16.19;88.68;97357.92;104739;1256;96185;-76
2023/09/02 05:08:02;;;;;;;9.40;6.20;;;;;;;16.20;88.72;97356.13;104752;1260;99743;-76
2023/09/02 05:10:30;;;;;;;7.80;6.50;;;;;;;16.22;88.64;97359.05;104677;1261;101147;-76
2023/09/02 05:12:57;;;;;;;8.20;6.10;;;;;;;16.24;88.43;97361.91;104835;1275;98480;-76
2023/09/02 05:15:25;;;;;;;6.90;6.20;;;;;;;16.27;88.04;97360.70;104709;1273;96065;-81
2023/09/02 05:17:53;;;;;;;6.90;6.20;;;;;;;16.29;88.74;97369.36;104751;1260;97297;-81
2023/09/02 05:20:21;;;;;;;12.70;7.90;;;;;;;16.29;89.10;97370.02;104728;1257;99429;-75
2023/09/02 05:22:48;;;;;;;9.80;7.40;;;;;;;16.29;88.83;97370.83;104724;1278;101457;-75
2023/09/02 05:25:16;;;;;;;10.20;7.50;;;;;;;16.31;89.14;97371.39;104757;1257;98767;-75
2023/09/02 05:27:44;;;;;;;9.00;7.60;;;;;;;16.33;88.93;97369.51;104718;1259;96755;-75
2023/09/02 05:30:12;;;;;;;8.50;7.60;;;;;;;16.37;88.79;97369.26;104731;1259;95915;-75
2023/09/02 05:32:40;;;;;;;9.30;7.60;;;;;;;16.41;88.79;97369.60;104613;1269;99396;-81
2023/09/02 05:35:08;;;;;;;9.10;8.20;;;;;;;16.46;88.96;97368.46;104564;1263;100529;-82
2023/09/02 05:37:35;;;;;;;12.90;8.60;;;;;;;16.50;88.89;97366.63;104520;1262;100174;-81
2023/09/02 05:40:03;;;;;;;9.70;7.30;;;;;;;16.56;88.99;97368.89;104491;1265;96155;-76
2023/09/02 05:42:31;;;;;;;9.10;7.40;;;;;;;16.63;88.83;97376.93;104538;1276;96220;-76
2023/09/02 05:44:59;;;;;;;8.70;7.60;;;;;;;16.68;88.97;97374.76;104468;1271;100936;-76
2023/09/02 05:47:26;;;;;;;12.80;7.00;;;;;;;16.73;88.97;97378.17;104473;1266;100348;-76
2023/09/02 05:49:54;;;;;;;7.30;6.60;;;;;;;16.78;88.99;97377.04;104429;1264;98548;-76
2023/09/02 05:52:22;;;;;;;7.50;6.80;;;;;;;16.82;88.97;97382.36;104435;1264;96378;-76
2023/09/02 05:54:49;;;;;;;8.40;6.60;;;;;;;16.88;89.15;97380.39;104341;1262;96767;-76
2023/09/02 05:57:17;;;;;;;8.80;7.70;;;;;;;16.95;89.29;97379.98;104410;1277;101048;-76
2023/09/02 05:59:45;;;;;;;9.60;7.70;;;;;;;17.03;89.57;97380.15;104386;1265;100383;-75
2023/09/02 06:02:13;;;;;;;21.80;16.10;;;;;;;17.12;89.59;97385.45;104358;1265;100064;-86
2023/09/02 06:04:40;;;;;;;18.20;13.50;;;;;;;17.21;89.62;97386.77;104433;1259;95922;-87
2023/09/02 06:07:08;;;;;;;14.70;11.10;;;;;;;17.30;90.06;97385.77;104461;1263;96041;-86
2023/09/02 06:09:36;;;;;;;35.10;15.90;;;;;;;17.40;89.92;97385.45;104453;1263;99955;-87
2023/09/02 06:12:04;;;;;;;14.90;10.20;;;;;;;17.47;90.01;97387.52;104457;1265;101244;-87
2023/09/02 06:14:32;;;;;;;12.90;8.10;;;;;;;17.53;90.07;97389.75;104468;1265;98812;-86
2023/09/02 06:16:59;;;;;;;9.40;8.40;;;;;;;17.58;89.89;97391.35;104430;1264;97413;-86
2023/09/02 06:19:27;;;;;;;10.50;8.50;;;;;;;17.63;89.89;97391.73;104649;1262;97221;-86
2023/09/02 06:21:55;;;;;;;13.50;9.30;;;;;;;17.68;89.67;97397.27;104644;1256;100107;-86
2023/09/02 06:24:22;;;;;;;13.30;8.00;;;;;;;17.73;89.69;97398.25;104730;1262;100234;-85
2023/09/02 06:26:50;;;;;;;9.50;7.70;;;;;;;17.76;89.77;97401.16;104573;1262;99962;-86
2023/09/02 06:29:18;;;;;;;9.30;6.60;;;;;;;17.80;89.71;97403.83;104659;1279;96822;-85
2023/09/02 06:31:46;;;;;;;9.70;6.30;;;;;;;17.82;89.68;97406.16;104681;1272;95849;-76
2023/09/02 06:34:13;;;;;;;9.70;6.30;;;;;;;17.83;89.90;97411.57;104639;1256;100994;-76
2023/09/02 06:36:41;;;;;;;9.00;6.50;;;;;;;17.84;89.64;97417.75;104632;1261;100356;-76
2023/09/02 06:39:09;;;;;;;7.60;6.60;;;;;;;17.87;89.75;97423.35;104664;1270;98741;-86
2023/09/02 06:41:37;;;;;;;9.30;6.20;;;;;;;17.90;89.49;97421.45;104669;1262;97224;-86
2023/09/02 06:44:04;;;;;;;8.30;5.90;;;;;;;17.91;89.33;97421.81;104641;1260;96726;-86
2023/09/02 06:46:35;;;;;;;6.80;6.10;;;;;;;17.91;89.24;97423.67;104456;1265;100872;-76
2023/09/02 06:49:05;;;;;;;7.50;6.00;;;;;;;17.92;88.93;97425.47;104287;1268;101652;-76
2023/09/02 06:51:33;;;;;;;6.80;6.00;;;;;;;17.93;88.88;97424.34;104421;1264;99719;-76
2023/09/02 06:54:00;;;;;;;7.40;6.70;;;;;;;17.94;88.95;97428.23;104526;1259;95910;-76
2023/09/02 06:56:28;;;;;;;7.50;6.80;;;;;;;17.94;88.98;97433.64;104445;1265;96114;-76
2023/09/02 06:58:56;;;;;;;8.40;6.70;;;;;;;17.95;88.78;97434.75;104553;1262;101097;-76
2023/09/02 07:01:24;;;;;;;8.00;7.00;;;;;;;17.97;88.59;97437.17;104514;1262;101377;-86
2023/09/02 07:03:55;;;;;;;7.70;6.90;;;;;;;17.98;88.76;97437.85;104522;1262;98983;-86
2023/09/02 07:06:23;;;;;;;7.70;6.90;;;;;;;17.98;88.88;97441.73;104509;1265;97260;-87
2023/09/02 07:08:51;;;;;;;7.30;6.60;;;;;;;18.01;88.87;97443.37;104328;1269;97046;-85
2023/09/02 07:11:18;;;;;;;11.10;6.10;;;;;;;18.05;88.76;97444.90;104604;1262;102349;-86
2023/09/02 07:13:46;;;;;;;6.70;5.90;;;;;;;18.10;88.84;97448.34;104569;1262;100261;-86
2023/09/02 07:16:15;;;;;;;6.60;5.90;;;;;;;18.16;88.67;97445.81;104502;1264;98642;-75
2023/09/02 07:18:42;;;;;;;6.70;6.10;;;;;;;18.21;88.53;97445.27;104633;1265;96685;-86
2023/09/02 07:21:11;;;;;;;7.10;6.00;;;;;;;18.25;88.67;97449.40;104668;1262;97084;-86
2023/09/02 07:23:39;;;;;;;7.30;6.00;;;;;;;18.31;88.71;97447.66;104672;1262;101985;-87
2023/09/02 07:26:06;;;;;;;7.90;6.50;;;;;;;18.40;88.49;97450.68;104649;1269;101631;-86
2023/09/02 07:28:36;;;;;;;6.40;5.80;;;;;;;18.50;88.43;97453.17;104627;1262;100079;-86
2023/09/02 07:31:05;;;;;;;6.70;5.80;;;;;;;18.64;88.38;97458.73;104656;1260;97781;-76
2023/09/02 07:33:33;;;;;;;10.30;5.60;;;;;;;18.76;88.02;97463.38;104694;1272;97023;-76
2023/09/02 07:36:08;;;;;;;6.40;5.70;;;;;;;18.87;87.69;97458.02;104625;1262;102307;-86
2023/09/02 07:38:36;;;;;;;9.30;5.40;;;;;;;19.01;87.46;97458.95;104682;1260;100322;-86
2023/09/02 07:41:04;;;;;;;5.90;4.80;;;;;;;19.17;87.12;97459.80;104499;1270;99099;-86
2023/09/02 07:43:31;;;;;;;5.70;4.80;;;;;;;19.31;86.98;97458.52;104687;1257;96561;-87
2023/09/02 07:45:59;;;;;;;8.10;5.10;;;;;;;19.59;86.92;97459.00;104614;1260;97410;-86
2023/09/02 07:48:27;;;;;;;5.30;4.20;;;;;;;19.93;86.65;97462.40;104657;1261;102411;-87
2023/09/02 07:50:55;;;;;;;6.30;4.80;;;;;;;20.21;86.30;97465.81;104652;1262;101531;-87
2023/09/02 07:53:22;;;;;;;6.00;4.90;;;;;;;20.34;86.05;97468.88;104697;1279;100074;-86
2023/09/02 07:55:50;;;;;;;5.50;4.60;;;;;;;20.60;85.77;97464.90;104732;1260;97934;-87
2023/09/02 07:58:18;;;;;;;4.80;4.30;;;;;;;21.04;85.45;97461.80;104854;1259;97240;-76
2023/09/02 08:00:45;;;;;;;3.50;3.00;;;;;;;21.32;84.43;97462.77;104876;1257;101433;-76
2023/09/02 08:03:13;;;;;;;3.30;3.00;;;;;;;21.51;83.38;97461.98;104832;1269;100348;-76
2023/09/02 08:05:41;;;;;;;3.70;2.80;;;;;;;21.78;82.74;97461.59;104826;1259;99741;-77
2023/09/02 08:08:09;;;;;;;3.20;2.50;;;;;;;22.13;81.84;97464.02;104748;1260;96571;-76
2023/09/02 08:10:38;;;;;;;4.10;2.60;;;;;;;22.51;80.65;97461.02;105022;1254;97184;-77
2023/09/02 08:13:06;;;;;;;2.70;2.30;;;;;;;22.72;79.77;97464.17;105083;1253;102528;-76
2023/09/02 08:15:33;;;;;;;3.10;2.50;;;;;;;22.75;78.87;97464.11;104944;1259;100392;-77
2023/09/02 08:18:01;;;;;;;2.30;2.10;;;;;;;22.57;78.19;97461.09;104814;1260;100215;-77
2023/09/02 08:20:30;;;;;;;5.70;2.40;;;;;;;22.42;77.85;97465.16;104908;1258;97995;-77
2023/09/02 08:22:58;;;;;;;3.70;2.70;;;;;;;22.30;77.26;97468.36;104786;1262;96653;-76
2023/09/02 08:25:26;;;;;;;2.70;2.50;;;;;;;22.19;76.97;97475.33;104930;1260;101340;-77
2023/09/02 08:27:53;;;;;;;3.50;2.50;;;;;;;22.09;76.91;97475.32;105006;1260;100484;-76
2023/09/02 08:30:24;;;;;;;2.80;2.40;;;;;;;22.01;76.53;97472.40;104871;1268;99917;-75
2023/09/02 08:32:51;;;;;;;4.60;2.50;;;;;;;21.91;76.02;97476.98;104857;1259;97506;-77
2023/09/02 08:35:19;;;;;;;2.60;2.40;;;;;;;21.78;75.66;97479.23;104851;1259;97919;-78
2023/09/02 08:37:47;;;;;;;3.90;2.30;;;;;;;21.70;75.87;97481.26;104885;1260;101217;-78
2023/09/02 08:40:15;;;;;;;2.70;2.30;;;;;;;21.65;75.64;97480.66;104898;1254;100431;-77
2023/09/02 08:42:44;;;;;;;4.30;3.20;;;;;;;21.57;75.53;97484.05;104530;1262;99128;-76
2023/09/02 08:45:13;;;;;;;2.80;2.50;;;;;;;21.45;75.02;97490.45;104802;1254;97217;-77
2023/09/02 08:47:41;;;;;;;2.80;2.60;;;;;;;21.28;75.71;97494.61;104999;1258;97912;-78
2023/09/02 08:50:10;;;;;;;4.00;2.80;;;;;;;21.31;76.50;97497.30;104842;1261;109971;-78
2023/09/02 08:52:40;;;;;;;3.70;2.60;;;;;;;21.62;77.05;97495.13;104840;1253;101301;-78
2023/09/02 08:55:09;;;;;;;4.10;2.80;;;;;;;21.94;76.57;97498.58;104943;1259;99783;-78
2023/09/02 08:57:37;;;;;;;4.10;2.80;;;;;;;22.07;76.54;97495.30;104787;1259;96560;-78
2023/09/02 09:00:06;;;;;;;2.80;2.50;;;;;;;22.15;76.04;97496.17;104939;1256;97013;-78
2023/09/02 09:02:37;;;;;;;5.40;3.00;;;;;;;22.20;75.03;97495.39;104854;1259;102398;-77
2023/09/02 09:05:06;;;;;;;2.90;2.30;;;;;;;22.23;73.67;97493.77;104778;1257;101387;-78
2023/09/02 09:07:35;;;;;;;2.80;2.40;;;;;;;22.50;74.25;97495.64;104673;1259;107584;-79
2023/09/02 09:10:04;;;;;;;3.00;2.10;;;;;;;23.03;74.15;97504.14;104592;1270;97524;-80
2023/09/02 09:12:34;;;;;;;4.40;3.40;;;;;;;23.50;72.52;97501.58;104356;1265;97138;-80
2023/09/02 09:15:03;;;;;;;3.90;3.40;;;;;;;23.57;70.41;97508.93;104433;1273;102484;-79
2023/09/02 09:17:31;;;;;;;5.70;4.00;;;;;;;23.41;70.26;97520.10;104538;1263;101214;-90
2023/09/02 09:20:00;;;;;;;4.40;4.00;;;;;;;23.11;69.08;97520.48;104600;1281;100432;-93
2023/09/02 09:22:28;;;;;;;6.30;4.70;;;;;;;22.83;69.57;97528.20;104047;1262;96854;-93
2023/09/02 09:24:57;;;;;;;7.20;5.40;;;;;;;22.61;69.66;97533.95;104393;1263;97607;-91
2023/09/02 09:27:26;;;;;;;5.70;5.20;;;;;;;22.37;70.00;97535.33;104337;1265;110052;-94
2023/09/02 09:29:53;;;;;;;8.40;7.50;;;;;;;22.20;70.18;97541.84;104222;1262;98870;-87
2023/09/02 09:32:22;;;;;;;7.40;5.90;;;;;;;22.08;70.49;97538.45;104345;1265;99038;-79
2023/09/02 09:34:50;;;;;;;13.00;11.60;;;;;;;21.96;70.00;97543.42;104304;1278;96774;-78
2023/09/02 09:37:18;;;;;;;11.50;8.70;;;;;;;21.81;70.82;97544.50;104345;1265;97307;-78
2023/09/02 09:39:51;;;;;;;7.10;6.50;;;;;;;21.75;71.15;97548.48;104372;1266;102184;-78
2023/09/02 09:42:34;;;;;;;11.90;7.00;;;;;;;21.72;71.27;97545.76;103875;1274;101496;-78
2023/09/02 09:45:03;;;;;;;9.00;7.20;;;;;;;21.62;71.21;97552.58;104180;1271;99795;-78
2023/09/02 09:47:31;;;;;;;7.40;6.70;;;;;;;21.36;70.89;97555.33;104214;1279;96797;-78
2023/09/02 09:50:15;;;;;;;6.90;6.20;;;;;;;21.16;71.97;97552.52;104363;1266;97302;-78
2023/09/02 09:53:04;;;;;;;7.30;6.60;;;;;;;21.06;72.30;97558.45;104883;1260;103133;-78
2023/09/02 09:55:34;;;;;;;7.20;6.50;;;;;;;20.92;72.54;97561.08;104817;1260;101431;-78
2023/09/02 09:58:02;;;;;;;8.60;6.30;;;;;;;20.84;73.11;97564.81;104579;1278;98786;-78
2023/09/02 10:00:30;;;;;;;7.80;6.90;;;;;;;20.79;73.35;97564.30;104849;1254;97858;-87
2023/09/02 10:03:00;;;;;;;7.90;6.50;;;;;;;20.78;73.46;97565.40;104566;1263;98247;-87
2023/09/02 10:05:33;;;;;;;7.10;6.40;;;;;;;20.76;73.96;97565.25;104952;1267;101310;-86
2023/09/02 10:08:06;;;;;;;6.70;6.10;;;;;;;20.77;74.26;97565.95;104916;1259;101557;-89
2023/09/02 10:10:38;;;;;;;8.20;6.70;;;;;;;20.74;74.11;97566.61;104874;1259;98727;-82
2023/09/02 10:13:06;;;;;;;6.50;5.90;;;;;;;20.81;74.17;97571.79;104810;1260;96652;-81
2023/09/02 10:15:34;;;;;;;6.90;6.30;;;;;;;20.91;74.26;97569.91;104858;1259;97321;-81
2023/09/02 10:18:04;;;;;;;6.10;5.50;;;;;;;20.99;74.22;97571.30;104876;1258;101240;-81
2023/09/02 10:20:35;;;;;;;6.20;5.60;;;;;;;21.03;73.91;97569.09;104530;1264;100466;-81
2023/09/02 10:23:09;;;;;;;7.00;6.30;;;;;;;21.08;74.07;97571.58;104850;1254;98438;-82
2023/09/02 10:25:56;;;;;;;5.60;5.10;;;;;;;21.19;73.84;97574.94;104928;1258;97903;-82
2023/09/02 10:28:32;;;;;;;5.40;4.80;;;;;;;21.33;73.68;97578.63;104915;1259;97903;-80
2023/09/02 10:31:03;;;;;;;5.70;4.90;;;;;;;21.52;73.28;97580.63;104644;1262;101205;-79
2023/09/02 10:34:00;;;;;;;4.80;4.40;;;;;;;21.72;72.95;97582.34;104562;1262;100212;-80
2023/09/02 10:36:32;;;;;;;5.80;4.70;;;;;;;21.86;72.28;97585.27;104787;1259;100081;-78
2023/09/02 10:39:04;;;;;;;5.40;4.60;;;;;;;21.93;72.01;97588.00;104970;1259;96646;-78
2023/09/02 10:41:32;;;;;;;5.20;4.70;;;;;;;22.02;71.67;97588.70;104468;1265;97037;-79
2023/09/02 10:44:02;;;;;;;6.80;5.00;;;;;;;22.15;70.98;97589.21;104952;1259;101312;-80
2023/09/02 10:46:30;;;;;;;8.90;5.50;;;;;;;22.22;71.04;97591.92;104652;1262;101748;-80
2023/09/02 10:49:00;;;;;;;6.20;5.60;;;;;;;22.24;71.17;97595.27;104875;1260;98705;-89
2023/09/02 10:51:28;;;;;;;8.10;5.50;;;;;;;22.20;71.40;97596.52;104585;1260;97555;-87
2023/09/02 10:53:56;;;;;;;6.80;5.30;;;;;;;22.20;71.94;97592.55;104907;1254;97113;-89
2023/09/02 10:56:26;;;;;;;6.60;5.30;;;;;;;22.19;71.58;97589.15;104875;1260;101793;-87
2023/09/02 10:58:55;;;;;;;5.90;5.40;;;;;;;22.10;71.20;97592.91;104844;1255;100141;-88
2023/09/02 11:01:23;;;;;;;6.10;5.30;;;;;;;22.07;71.73;97592.50;104596;1254;99890;-79
2023/09/02 11:03:54;;;;;;;5.30;4.40;;;;;;;22.12;71.08;97597.74;104666;1264;97206;-78
2023/09/02 11:06:22;;;;;;;5.60;5.10;;;;;;;22.15;70.82;97595.31;104879;1260;97086;-79
2023/09/02 11:08:51;;;;;;;5.80;5.30;;;;;;;22.21;70.66;97600.78;104816;1260;102306;-78
2023/09/02 11:11:20;;;;;;;6.00;5.10;;;;;;;22.25;70.47;97599.84;104770;1259;111164;-79
2023/09/02 11:14:07;;;;;;;6.10;5.50;;;;;;;22.25;70.12;97600.33;104889;1254;100140;-78
2023/09/02 11:16:38;;;;;;;6.80;5.60;;;;;;;22.20;70.11;97600.96;104918;1264;97823;-78
2023/09/02 11:19:08;;;;;;;6.20;5.60;;;;;;;22.15;69.83;97599.93;104812;1260;96968;-78
2023/09/02 11:21:41;;;;;;;8.60;6.30;;;;;;;22.10;70.77;97602.48;104828;1257;101328;-78
2023/09/02 11:24:20;;;;;;;9.10;6.80;;;;;;;22.10;70.94;97610.23;104805;1275;101617;-77
2023/09/02 11:26:54;;;;;;;7.60;5.80;;;;;;;22.12;70.59;97611.10;104797;1267;99109;-78
2023/09/02 11:29:27;;;;;;;8.00;6.60;;;;;;;22.12;70.78;97608.73;104885;1259;96581;-78
2023/09/02 11:32:03;;;;;;;6.00;5.50;;;;;;;22.19;71.52;97608.71;104894;1259;97898;-76
2023/09/02 11:34:32;;;;;;;5.20;4.80;;;;;;;22.35;70.96;97607.66;104580;1264;101945;-75
2023/09/02 11:37:01;;;;;;;5.00;4.60;;;;;;;22.44;70.11;97601.68;104618;1271;100287;-75
2023/09/02 11:39:32;;;;;;;10.90;8.50;;;;;;;22.56;69.85;97598.09;104584;1262;99987;-75
2023/09/02 11:42:09;;;;;;;12.60;11.10;;;;;;;22.79;69.81;97601.67;104806;1258;96667;-75
2023/09/02 11:44:37;;;;;;;8.20;7.30;;;;;;;22.84;69.09;97604.70;104704;1261;96990;-76
2023/09/02 11:47:06;;;;;;;6.60;4.50;;;;;;;22.92;69.03;97610.34;104856;1259;101167;-87
2023/09/02 11:49:34;;;;;;;5.00;4.60;;;;;;;23.08;68.76;97612.48;104596;1276;100508;-84
2023/09/02 11:52:02;;;;;;;7.50;6.00;;;;;;;23.23;68.38;97613.57;104864;1259;98479;-85
2023/09/02 11:54:29;;;;;;;6.30;5.60;;;;;;;23.34;67.31;97611.39;104741;1259;96946;-85
2023/09/02 11:57:00;;;;;;;5.30;4.50;;;;;;;23.34;66.78;97612.86;104862;1266;96602;-84
2023/09/02 11:59:28;;;;;;;5.00;4.50;;;;;;;23.33;66.82;97617.52;104589;1274;102421;-87
2023/09/02 12:02:15;;;;;;;4.70;4.10;;;;;;;23.27;66.97;97615.42;104818;1259;100591;-81
2023/09/02 12:04:44;;;;;;;7.40;6.70;;;;;;;23.21;66.84;97617.83;104563;1263;98547;-81
2023/09/02 12:07:12;;;;;;;8.00;6.50;;;;;;;23.10;66.67;97624.20;104583;1278;97778;-82
2023/09/02 12:09:40;;;;;;;8.80;7.50;;;;;;;22.95;65.98;97626.06;104840;1258;98164;-81
2023/09/02 12:12:08;;;;;;;7.50;6.70;;;;;;;22.88;66.43;97623.95;104787;1267;101166;-81
2023/09/02 12:14:37;;;;;;;5.80;5.20;;;;;;;22.90;66.61;97618.95;104786;1260;109339;-80
2023/09/02 12:17:05;;;;;;;7.50;6.70;;;;;;;22.85;66.21;97618.09;104900;1259;99686;-80
2023/09/02 12:19:34;;;;;;;5.80;5.10;;;;;;;22.81;66.71;97619.77;104478;1260;97701;-81
2023/09/02 12:22:03;;;;;;;4.50;4.10;;;;;;;22.82;66.88;97621.09;104919;1260;96488;-81
2023/09/02 12:24:30;;;;;;;4.80;4.10;;;;;;;22.84;66.63;97619.30;104631;1263;102361;-75
2023/09/02 12:26:58;;;;;;;5.90;4.40;;;;;;;22.92;66.68;97615.45;104869;1260;101626;-75
2023/09/02 12:29:26;;;;;;;4.40;4.00;;;;;;;22.97;66.42;97620.20;104914;1268;98812;-76
2023/09/02 12:32:01;;;;;;;4.70;4.00;;;;;;;23.01;66.65;97624.31;104875;1258;96841;-82
2023/09/02 12:34:33;;;;;;;4.60;3.90;;;;;;;23.11;66.34;97623.80;104785;1269;97093;-83
2023/09/02 12:37:15;;;;;;;;;;;;;;;23.31;66.24;97619.95;104940;1267;100862;-82
2023/09/02 12:39:43;;;;;;;6.50;3.90;;;;;;;23.51;65.35;97622.95;104912;1263;101103;-83
2023/09/02 12:42:19;;;;;;;4.10;3.80;;;;;;;23.66;64.95;97628.17;104591;1270;100158;-84
2023/09/02 12:44:54;;;;;;;6.40;4.30;;;;;;;23.82;65.00;97629.05;104572;1271;97807;-79
2023/09/02 12:47:25;;;;;;;3.80;3.50;;;;;;;23.98;64.37;97627.13;104908;1261;97064;-76
2023/09/02 12:49:54;;;;;;;4.00;3.60;;;;;;;24.14;63.81;97622.96;104722;1264;101016;-76
2023/09/02 12:52:25;;;;;;;4.10;3.70;;;;;;;24.25;63.45;97620.66;104813;1264;100521;-76
2023/09/02 12:54:58;;;;;;;4.40;3.50;;;;;;;24.38;63.02;97620.89;104767;1260;98797;-76
2023/09/02 12:57:27;;;;;;;3.80;3.50;;;;;;;24.42;61.55;97623.59;104724;1265;97525;-77
2023/09/02 12:59:55;;;;;;;4.00;3.70;;;;;;;24.38;60.84;97624.92;105003;1260;97133;-76
2023/09/02 13:02:25;;;;;;;5.80;3.70;;;;;;;24.40;61.83;97622.29;104997;1267;101382;-82
2023/09/02 13:04:53;;;;;;;4.00;3.60;;;;;;;24.48;62.27;97620.83;104902;1254;100398;-84
2023/09/02 13:07:21;;;;;;;5.00;4.20;;;;;;;24.58;61.74;97617.33;104828;1267;99015;-82
2023/09/02 13:09:51;;;;;;;4.70;4.30;;;;;;;24.69;61.64;97616.35;104815;1260;96664;-81
2023/09/02 13:12:19;;;;;;;5.20;4.30;;;;;;;24.75;61.38;97617.41;104899;1260;97028;-84
2023/09/02 13:14:49;;;;;;;3.60;3.20;;;;;;;24.78;60.40;97621.08;104748;1258;101264;-83
2023/09/02 13:17:17;;;;;;;5.90;3.70;;;;;;;24.83;60.48;97618.47;104915;1258;111231;-84
2023/09/02 13:19:48;;;;;;;4.00;3.60;;;;;;;24.88;60.25;97623.09;104775;1259;99995;-82
2023/09/02 13:22:15;;;;;;;9.90;6.80;;;;;;;24.87;59.79;97624.98;104614;1262;96606;-80
2023/09/02 13:24:45;;;;;;;7.50;5.80;;;;;;;24.76;59.37;97629.72;104805;1255;97001;-81
2023/09/02 13:27:15;;;;;;;5.50;4.50;;;;;;;24.67;59.60;97630.83;104905;1264;101735;-81
2023/09/02 13:29:43;;;;;;;4.70;3.90;;;;;;;24.68;59.91;97632.91;104923;1260;100147;-82